Time;durP1;ratioP1;P1;durP2;ratioP2;P2;SDS_P1;SDS_P2;PMS_P1;PMS_P2;Temp;Humidity;BMP_temperature;BMP_pressure;BME280_temperature;BME280_humidity;BME280_pressure;Samples;Min_cycle;Max_cycle;Signal;HPM_P1;HPM_P2
2022/06/19 00:00:23;;;;;;;25.37;22.97;;;;;;;16.26;100.00;99203.50;2098061;28;20237;-71
2022/06/19 00:01:27;;;;;;;24.67;22.20;;;;;;;16.23;100.00;99198.75;2097831;28;20432;-70
2022/06/19 00:02:33;;;;;;;25.73;23.00;;;;;;;16.16;100.00;99192.31;2089803;28;20468;-71
2022/06/19 00:03:39;;;;;;;25.30;23.07;;;;;;;16.08;100.00;99199.38;2097960;28;20405;-71
2022/06/19 00:04:39;;;;;;;25.40;23.03;;;;;;;16.01;100.00;99196.41;2098370;28;20794;-71
2022/06/19 00:05:41;;;;;;;25.40;22.97;;;;;;;15.94;100.00;99207.69;2097952;28;20622;-71
2022/06/19 00:06:42;;;;;;;24.47;21.97;;;;;;;15.87;100.00;99198.56;2097528;28;20223;-71
2022/06/19 00:07:46;;;;;;;24.77;22.47;;;;;;;15.79;100.00;99200.19;2097789;28;20976;-72
2022/06/19 00:08:48;;;;;;;24.77;22.37;;;;;;;15.75;100.00;99199.28;2097876;28;20425;-70
2022/06/19 00:09:51;;;;;;;25.50;23.10;;;;;;;15.70;100.00;99205.63;2098650;28;20468;-71
2022/06/19 00:10:52;;;;;;;25.83;23.50;;;;;;;15.68;100.00;99207.06;2098444;28;20459;-70
2022/06/19 00:11:55;;;;;;;26.57;23.67;;;;;;;15.67;100.00;99208.19;2097684;28;20444;-71
2022/06/19 00:12:56;;;;;;;26.07;23.57;;;;;;;15.67;100.00;99203.59;2097865;28;20723;-71
2022/06/19 00:14:00;;;;;;;25.03;22.93;;;;;;;15.66;100.00;99201.22;2098031;28;20503;-70
2022/06/19 00:15:03;;;;;;;25.70;23.40;;;;;;;15.62;100.00;99206.47;2097709;28;20236;-71
2022/06/19 00:16:06;;;;;;;25.67;23.20;;;;;;;15.59;100.00;99199.03;2090216;28;20536;-71
2022/06/19 00:17:09;;;;;;;25.60;23.27;;;;;;;15.59;100.00;99207.09;2097745;28;20463;-70
2022/06/19 00:18:10;;;;;;;25.10;22.83;;;;;;;15.58;100.00;99204.72;2097842;28;20435;-71
2022/06/19 00:19:11;;;;;;;25.93;23.23;;;;;;;15.56;100.00;99207.75;2099488;28;20440;-71
2022/06/19 00:20:13;;;;;;;25.67;23.10;;;;;;;15.55;100.00;99203.50;2099166;28;20440;-72
2022/06/19 00:21:16;;;;;;;25.23;22.90;;;;;;;15.51;100.00;99206.03;2098790;28;20230;-71
2022/06/19 00:22:18;;;;;;;25.27;22.87;;;;;;;15.47;100.00;99201.63;2100067;28;20444;-70
2022/06/19 00:23:19;;;;;;;25.03;22.43;;;;;;;15.47;100.00;99209.69;2099827;28;20436;-71
2022/06/19 00:24:21;;;;;;;26.20;23.10;;;;;;;15.43;100.00;99214.13;2099871;28;20433;-71
2022/06/19 00:25:21;;;;;;;26.27;23.67;;;;;;;15.43;100.00;99214.13;2100044;28;20193;-71
2022/06/19 00:26:23;;;;;;;25.63;23.13;;;;;;;15.41;100.00;99211.78;2099786;28;20440;-70
2022/06/19 00:27:24;;;;;;;26.00;23.60;;;;;;;15.43;100.00;99214.13;2099334;28;20316;-70
2022/06/19 00:28:28;;;;;;;27.20;24.37;;;;;;;15.40;100.00;99212.88;2099205;28;20421;-71
2022/06/19 00:29:29;;;;;;;25.37;22.97;;;;;;;15.41;100.00;99205.59;2099805;28;20919;-70
2022/06/19 00:30:32;;;;;;;26.17;23.47;;;;;;;15.41;100.00;99209.09;2100011;28;20757;-71
2022/06/19 00:31:33;;;;;;;25.40;23.20;;;;;;;15.39;100.00;99205.16;2099103;28;20664;-71
2022/06/19 00:32:36;;;;;;;26.07;23.40;;;;;;;15.37;100.00;99200.06;2099199;28;20856;-71
2022/06/19 00:33:36;;;;;;;25.30;22.90;;;;;;;15.37;100.00;99196.59;2099790;28;20326;-71
2022/06/19 00:34:40;;;;;;;26.00;23.23;;;;;;;15.35;100.00;99196.94;2099762;28;20508;-71
2022/06/19 00:35:43;;;;;;;26.03;23.53;;;;;;;15.34;100.00;99200.72;2099110;28;20214;-70
2022/06/19 00:36:49;;;;;;;25.77;23.47;;;;;;;15.33;100.00;99201.84;2090974;28;20501;-70
2022/06/19 00:37:49;;;;;;;25.10;22.70;;;;;;;15.31;100.00;99205.97;2099345;28;20400;-71
2022/06/19 00:38:51;;;;;;;25.63;23.20;;;;;;;15.31;100.00;99200.59;2099756;28;20421;-71
2022/06/19 00:39:51;;;;;;;25.80;23.27;;;;;;;15.28;100.00;99196.63;2099713;28;20186;-70
2022/06/19 00:40:55;;;;;;;26.77;24.10;;;;;;;15.26;100.00;99198.88;2098952;28;20440;-71
2022/06/19 00:41:56;;;;;;;26.50;23.47;;;;;;;15.24;100.00;99193.03;2099323;28;20226;-71
2022/06/19 00:42:58;;;;;;;26.03;23.50;;;;;;;15.22;100.00;99193.38;2099021;28;20444;-71
2022/06/19 00:44:02;;;;;;;26.37;23.57;;;;;;;15.21;100.00;99189.09;2098979;28;20233;-71
2022/06/19 00:45:05;;;;;;;25.10;22.80;;;;;;;15.18;100.00;99189.72;2099135;28;20429;-70
2022/06/19 00:46:39;;;;;;;25.83;23.23;;;;;;;15.17;100.00;99190.84;2099697;28;20519;-70
2022/06/19 00:47:42;;;;;;;26.03;23.53;;;;;;;15.10;100.00;99182.50;2098851;28;20443;-71
2022/06/19 00:48:43;;;;;;;26.07;23.87;;;;;;;15.11;100.00;99192.13;2099208;28;20432;-70
2022/06/19 00:49:50;;;;;;;25.17;22.90;;;;;;;15.09;100.00;99188.19;2099614;28;20428;-71
2022/06/19 00:50:53;;;;;;;25.83;23.60;;;;;;;15.09;100.00;99186.28;2099003;28;20237;-71
2022/06/19 00:52:03;;;;;;;26.97;24.40;;;;;;;15.05;100.00;99182.69;2098648;28;20823;-70
2022/06/19 00:53:06;;;;;;;26.33;23.93;;;;;;;15.03;100.00;99184.91;2099250;28;20666;-71
2022/06/19 00:54:08;;;;;;;26.27;23.97;;;;;;;15.01;100.00;99189.78;2099037;28;20446;-70
2022/06/19 00:55:12;;;;;;;26.43;24.03;;;;;;;15.03;100.00;99189.47;2099609;28;20463;-71
2022/06/19 00:56:17;;;;;;;26.03;23.53;;;;;;;15.02;100.00;99180.63;2099723;28;20432;-70
2022/06/19 00:57:21;;;;;;;26.60;24.03;;;;;;;15.01;100.00;99187.09;2099652;28;20432;-71
2022/06/19 00:58:24;;;;;;;26.03;23.53;;;;;;;14.99;100.00;99192.81;2099016;28;20870;-71
2022/06/19 00:59:26;;;;;;;25.33;23.13;;;;;;;14.99;100.00;99187.44;2098921;28;20989;-71
2022/06/19 01:00:29;;;;;;;26.63;23.93;;;;;;;14.99;100.00;99183.97;2098863;28;20543;-71
2022/06/19 01:01:32;;;;;;;25.50;23.07;;;;;;;14.97;100.00;99183.50;2099007;28;20420;-70
2022/06/19 01:02:33;;;;;;;26.10;23.57;;;;;;;14.96;100.00;99185.41;2099525;28;20476;-71
2022/06/19 01:03:43;;;;;;;26.27;23.70;;;;;;;14.95;100.00;99186.50;2098854;28;20443;-71
2022/06/19 01:04:47;;;;;;;25.40;23.10;;;;;;;14.95;100.00;99189.19;2091407;28;20480;-71
2022/06/19 01:05:49;;;;;;;26.67;23.97;;;;;;;14.94;100.00;99184.13;2098970;28;20826;-71
2022/06/19 01:06:50;;;;;;;26.47;23.97;;;;;;;14.94;100.00;99192.19;2098968;28;20509;-70
2022/06/19 01:07:52;;;;;;;25.43;23.37;;;;;;;14.90;100.00;99192.06;2099762;28;20474;-71
2022/06/19 01:08:53;;;;;;;28.00;24.27;;;;;;;14.88;100.00;99193.50;2099028;28;20233;-70
2022/06/19 01:09:56;;;;;;;26.73;24.37;;;;;;;14.86;100.00;99183.06;2099009;28;20429;-71
2022/06/19 01:10:57;;;;;;;26.47;24.03;;;;;;;14.86;100.00;99182.28;2098778;28;20198;-71
2022/06/19 01:12:01;;;;;;;25.07;22.67;;;;;;;14.85;100.00;99188.75;2098911;28;20482;-71
2022/06/19 01:13:02;;;;;;;25.73;23.23;;;;;;;14.82;100.00;99184.03;2098773;28;20472;-71
2022/06/19 01:14:03;;;;;;;26.77;23.87;;;;;;;14.81;100.00;99183.22;2098854;28;20439;-71
2022/06/19 01:15:08;;;;;;;26.53;23.93;;;;;;;14.81;100.00;99182.44;2099649;28;20194;-71
2022/06/19 01:16:10;;;;;;;28.87;25.80;;;;;;;14.79;100.00;99180.09;2098945;28;20445;-71
2022/06/19 01:17:13;;;;;;;26.70;24.37;;;;;;;14.78;100.00;99180.41;2098752;28;20558;-71
2022/06/19 01:18:15;;;;;;;27.10;24.70;;;;;;;14.77;100.00;99176.13;2099483;28;20424;-71
2022/06/19 01:19:22;;;;;;;27.30;24.90;;;;;;;14.75;100.00;99178.34;2098991;28;20456;-70
2022/06/19 01:20:24;;;;;;;27.20;24.63;;;;;;;14.74;100.00;99176.78;2098972;28;20492;-71
2022/06/19 01:21:28;;;;;;;28.60;25.07;;;;;;;14.74;100.00;99169.50;2099015;28;20473;-71
2022/06/19 01:22:35;;;;;;;26.67;24.27;;;;;;;14.70;100.00;99166.69;2099591;28;20922;-71
2022/06/19 01:23:41;;;;;;;27.17;24.67;;;;;;;14.68;100.00;99163.53;2099387;28;20448;-71
2022/06/19 01:24:57;;;;;;;27.63;24.87;;;;;;;14.67;100.00;99166.50;2098691;28;20437;-71
2022/06/19 01:25:58;;;;;;;25.93;23.53;;;;;;;14.68;100.00;99158.16;2099171;28;20429;-71
2022/06/19 01:27:01;;;;;;;26.30;23.83;;;;;;;14.73;100.00;99169.81;2098666;28;20445;-70
2022/06/19 01:29:26;;;;;;;26.27;23.87;;;;;;;14.69;100.00;99165.09;2093409;28;20468;-70
2022/06/19 01:30:28;;;;;;;25.80;23.40;;;;;;;14.64;100.00;99156.41;2098614;28;20497;-71
2022/06/19 01:31:32;;;;;;;27.27;24.57;;;;;;;14.66;100.00;99165.72;2099423;28;20435;-71
2022/06/19 01:32:35;;;;;;;26.30;23.60;;;;;;;14.68;100.00;99163.53;2098587;28;20452;-70
2022/06/19 01:33:41;;;;;;;26.43;24.07;;;;;;;14.64;100.00;99165.25;2098736;28;20935;-70
2022/06/19 01:34:42;;;;;;;26.93;24.40;;;;;;;14.64;100.00;99165.25;2098618;28;20479;-70
2022/06/19 01:35:46;;;;;;;26.50;23.97;;;;;;;14.64;100.00;99167.16;2098650;28;20420;-71
2022/06/19 01:36:47;;;;;;;26.50;24.10;;;;;;;14.62;100.00;99154.06;2098185;28;20437;-70
2022/06/19 01:37:50;;;;;;;25.60;23.40;;;;;;;14.62;100.00;99153.28;2090546;28;20438;-71
2022/06/19 01:38:53;;;;;;;26.73;24.30;;;;;;;14.63;100.00;99161.00;2098804;28;20186;-70
2022/06/19 01:39:57;;;;;;;27.37;24.53;;;;;;;14.61;100.00;99149.00;2098499;28;20448;-70
2022/06/19 01:41:01;;;;;;;25.50;23.07;;;;;;;14.56;100.00;99144.59;2090592;28;21091;-70
2022/06/19 01:42:05;;;;;;;26.30;24.00;;;;;;;14.60;100.00;99150.13;2098615;28;20428;-71
2022/06/19 01:43:09;;;;;;;26.33;23.83;;;;;;;14.59;100.00;99149.31;2099269;28;20799;-71
2022/06/19 01:44:11;;;;;;;27.00;24.60;;;;;;;14.58;100.00;99149.63;2099213;28;20429;-70
2022/06/19 01:45:12;;;;;;;26.17;23.70;;;;;;;14.58;100.00;99147.72;2098716;28;20484;-70
2022/06/19 01:46:15;;;;;;;25.87;23.53;;;;;;;14.61;100.00;99151.69;2098579;28;20456;-71
2022/06/19 01:47:16;;;;;;;27.50;24.77;;;;;;;14.59;100.00;99143.94;2099151;28;20429;-71
2022/06/19 01:48:18;;;;;;;28.00;24.97;;;;;;;14.58;100.00;99147.72;2098722;28;20432;-70
2022/06/19 01:49:19;;;;;;;26.47;24.10;;;;;;;14.60;100.00;99150.91;2098398;28;20269;-70
2022/06/19 01:50:24;;;;;;;25.50;23.07;;;;;;;14.62;100.00;99151.38;2098607;28;20938;-70
2022/06/19 01:51:25;;;;;;;26.80;23.97;;;;;;;14.61;100.00;99140.97;2098804;28;20460;-70
2022/06/19 01:52:30;;;;;;;27.23;24.43;;;;;;;14.63;100.00;99144.09;2099124;28;20459;-71
2022/06/19 01:53:35;;;;;;;26.57;24.00;;;;;;;14.66;100.00;99146.94;2099141;28;20652;-71
2022/06/19 01:54:39;;;;;;;27.67;25.10;;;;;;;14.72;100.00;99147.56;2099099;28;20409;-70
2022/06/19 01:55:41;;;;;;;26.20;23.63;;;;;;;14.79;100.00;99155.91;2099090;28;20866;-71
2022/06/19 01:56:43;;;;;;;26.80;24.50;;;;;;;14.83;100.00;99146.09;2098910;28;20501;-70
2022/06/19 01:57:45;;;;;;;26.57;23.73;;;;;;;14.83;100.00;99142.59;2099274;28;20462;-71
2022/06/19 01:58:52;;;;;;;26.00;23.57;;;;;;;14.85;100.00;99141.16;2098606;28;20497;-71
2022/06/19 01:59:53;;;;;;;26.67;24.03;;;;;;;14.86;100.00;99145.47;2098804;28;20954;-71
2022/06/19 02:00:55;;;;;;;26.77;23.90;;;;;;;14.84;100.00;99147.66;2098680;28;20887;-70
2022/06/19 02:01:56;;;;;;;27.73;25.13;;;;;;;14.85;100.00;99151.13;2099045;28;20468;-71
2022/06/19 02:03:04;;;;;;;27.93;24.97;;;;;;;14.84;100.00;99149.56;2099034;28;20795;-71
2022/06/19 02:04:06;;;;;;;26.73;24.13;;;;;;;14.85;100.00;99151.13;2099063;28;20511;-71
2022/06/19 02:05:08;;;;;;;26.30;23.85;;;;;;;14.83;100.00;99145.31;2099151;28;20424;-71
2022/06/19 02:06:11;;;;;;;26.10;23.63;;;;;;;14.82;100.00;99146.41;2098624;28;20214;-71
2022/06/19 02:07:16;;;;;;;25.92;23.67;;;;;;;14.82;100.00;99146.41;2098355;28;20955;-70
2022/06/19 02:08:16;;;;;;;26.90;24.37;;;;;;;14.80;100.00;99144.06;2098639;28;20226;-71
2022/06/19 02:09:19;;;;;;;26.40;23.57;;;;;;;14.82;100.00;99141.81;2098991;28;20424;-71
2022/06/19 02:10:22;;;;;;;26.23;23.83;;;;;;;14.84;100.00;99149.56;2099220;28;20269;-71
2022/06/19 02:11:26;;;;;;;26.70;24.00;;;;;;;14.83;100.00;99145.31;2098976;28;20452;-71
2022/06/19 02:12:27;;;;;;;26.35;23.95;;;;;;;14.84;100.00;99144.19;2098995;28;20539;-70
2022/06/19 02:13:32;;;;;;;25.30;22.87;;;;;;;14.83;100.00;99138.03;2098277;28;20622;-71
2022/06/19 02:14:33;;;;;;;26.57;23.97;;;;;;;14.86;100.00;99147.34;2098414;28;20428;-71
2022/06/19 02:15:36;;;;;;;24.87;22.80;;;;;;;14.85;100.00;99132.31;2098949;28;20515;-71
2022/06/19 02:16:40;;;;;;;26.77;23.93;;;;;;;14.87;100.00;99132.81;2098954;28;20523;-71
2022/06/19 02:17:48;;;;;;;26.37;23.97;;;;;;;14.86;100.00;99140.09;2098887;28;21019;-71
2022/06/19 02:18:50;;;;;;;25.85;23.35;;;;;;;14.91;100.00;99136.41;2099096;28;20409;-70
2022/06/19 02:19:53;;;;;;;26.13;23.07;;;;;;;14.90;100.00;99137.53;2099116;28;20186;-70
2022/06/19 02:20:54;;;;;;;26.13;23.53;;;;;;;14.92;100.00;99125.34;2097815;28;20437;-70
2022/06/19 02:21:56;;;;;;;25.80;23.33;;;;;;;14.93;100.00;99126.13;2098430;28;20462;-70
2022/06/19 02:22:57;;;;;;;25.53;22.93;;;;;;;14.97;100.00;99127.88;2098494;28;20798;-70
2022/06/19 02:23:59;;;;;;;25.83;23.27;;;;;;;15.05;100.00;99128.16;2098312;28;20429;-71
2022/06/19 02:25:02;;;;;;;25.30;22.97;;;;;;;15.10;100.00;99127.94;2098209;28;20692;-71
2022/06/19 02:26:06;;;;;;;25.30;23.10;;;;;;;15.11;100.00;99122.25;2098513;28;20930;-71
2022/06/19 02:27:08;;;;;;;25.93;23.40;;;;;;;15.12;100.00;99121.16;2098523;28;20433;-70
2022/06/19 02:28:10;;;;;;;25.73;22.67;;;;;;;15.12;100.00;99123.06;2098913;28;20424;-71
2022/06/19 02:29:13;;;;;;;24.77;22.60;;;;;;;15.15;100.00;99120.50;2098208;28;20563;-70
2022/06/19 02:30:15;;;;;;;24.70;22.53;;;;;;;15.13;100.00;99120.06;2090409;28;20464;-70
2022/06/19 02:31:16;;;;;;;24.90;22.73;;;;;;;15.15;100.00;99123.19;2098259;28;21018;-71
2022/06/19 02:32:19;;;;;;;24.67;22.37;;;;;;;15.11;100.00;99122.25;2099037;28;20473;-71
2022/06/19 02:33:25;;;;;;;26.30;22.73;;;;;;;15.09;100.00;99115.63;2098403;28;20456;-70
2022/06/19 02:34:28;;;;;;;25.50;22.90;;;;;;;15.10;100.00;99123.38;2098462;28;20405;-71
2022/06/19 02:35:29;;;;;;;24.97;22.43;;;;;;;15.14;100.00;99118.94;2099043;28;20511;-71
2022/06/19 02:36:37;;;;;;;24.93;22.43;;;;;;;15.16;100.00;99114.00;2098468;28;20452;-71
2022/06/19 02:37:40;;;;;;;23.95;21.75;;;;;;;15.15;100.00;99117.81;2098747;28;20464;-71
2022/06/19 02:38:42;;;;;;;24.52;22.13;;;;;;;15.14;100.00;99118.94;2098851;28;20213;-70
2022/06/19 02:39:46;;;;;;;24.73;22.58;;;;;;;15.14;100.00;99116.25;2098829;28;20565;-71
2022/06/19 02:40:56;;;;;;;24.67;22.40;;;;;;;15.15;100.00;99119.72;2098810;28;20220;-71
2022/06/19 02:42:06;;;;;;;25.13;22.73;;;;;;;15.11;100.00;99121.47;2098357;28;20412;-71
2022/06/19 02:43:13;;;;;;;25.87;23.37;;;;;;;15.11;100.00;99119.56;2099067;28;20397;-71
2022/06/19 02:44:14;;;;;;;25.23;22.90;;;;;;;15.10;100.00;99112.63;2098138;28;20456;-70
2022/06/19 02:45:18;;;;;;;26.20;23.47;;;;;;;15.08;100.00;99122.13;2098173;28;20428;-72
2022/06/19 02:46:19;;;;;;;26.57;23.80;;;;;;;15.07;100.00;99121.34;2098777;28;20265;-70
2022/06/19 02:47:22;;;;;;;25.10;22.63;;;;;;;15.07;100.00;99126.72;2098826;28;20417;-71
2022/06/19 02:48:27;;;;;;;25.20;22.90;;;;;;;15.06;100.00;99133.19;2098844;28;20190;-70
2022/06/19 02:49:31;;;;;;;26.70;23.73;;;;;;;15.00;100.00;99131.78;2098750;28;20784;-71
2022/06/19 02:50:35;;;;;;;25.23;22.87;;;;;;;14.99;100.00;99130.22;2098070;28;20514;-71
2022/06/19 02:51:36;;;;;;;25.93;23.73;;;;;;;14.99;100.00;99136.38;2097978;28;20449;-70
2022/06/19 02:52:37;;;;;;;26.67;23.93;;;;;;;15.02;100.00;99136.84;2098290;28;20431;-71
2022/06/19 02:53:39;;;;;;;26.00;23.67;;;;;;;15.04;100.00;99137.31;2098713;28;20224;-70
2022/06/19 02:54:41;;;;;;;26.27;23.63;;;;;;;15.02;100.00;99140.31;2098745;28;20416;-71
2022/06/19 02:55:41;;;;;;;25.23;23.03;;;;;;;15.04;100.00;99138.13;2098963;28;20436;-71
2022/06/19 02:56:44;;;;;;;27.13;24.53;;;;;;;15.11;100.00;99137.59;2098718;28;20660;-70
2022/06/19 02:57:46;;;;;;;26.10;23.63;;;;;;;15.09;100.00;99143.28;2097976;28;20774;-71
2022/06/19 02:58:48;;;;;;;26.07;23.67;;;;;;;15.10;100.00;99144.06;2098113;28;20889;-70
2022/06/19 02:59:49;;;;;;;26.77;24.27;;;;;;;15.07;100.00;99142.84;2098019;28;20624;-71
2022/06/19 03:00:52;;;;;;;25.87;23.50;;;;;;;15.09;100.00;99140.59;2098055;28;20440;-71
2022/06/19 03:01:53;;;;;;;25.40;23.10;;;;;;;15.10;100.00;99138.69;2098148;28;20218;-70
2022/06/19 03:02:57;;;;;;;26.60;23.83;;;;;;;15.08;100.00;99139.03;2098779;28;20965;-70
2022/06/19 03:03:58;;;;;;;26.33;23.60;;;;;;;15.09;100.00;99135.22;2098701;28;20938;-71
2022/06/19 03:05:02;;;;;;;26.03;23.73;;;;;;;15.05;100.00;99128.94;2098569;28;20305;-71
2022/06/19 03:06:03;;;;;;;26.27;23.87;;;;;;;15.08;100.00;99135.56;2098195;28;20512;-71
2022/06/19 03:07:05;;;;;;;26.30;23.23;;;;;;;15.05;100.00;99134.31;2098073;28;20432;-70
2022/06/19 03:08:05;;;;;;;25.80;23.00;;;;;;;15.06;100.00;99141.25;2089778;28;20507;-70
2022/06/19 03:09:07;;;;;;;25.80;23.53;;;;;;;15.05;100.00;99134.31;2098080;28;20504;-71
2022/06/19 03:10:10;;;;;;;25.57;23.30;;;;;;;15.02;100.00;99137.63;2098935;28;20194;-71
2022/06/19 03:11:12;;;;;;;25.20;23.10;;;;;;;15.02;100.00;99142.22;2098278;28;20465;-71
2022/06/19 03:12:13;;;;;;;25.63;23.33;;;;;;;14.99;100.00;99140.97;2098076;28;20505;-70
2022/06/19 03:13:18;;;;;;;26.47;23.50;;;;;;;14.97;100.00;99137.81;2098237;28;20440;-71
2022/06/19 03:14:20;;;;;;;26.50;23.97;;;;;;;14.99;100.00;99135.59;2098197;28;20218;-71
2022/06/19 03:15:21;;;;;;;25.17;23.07;;;;;;;14.93;100.00;99129.59;2098668;28;20432;-71
2022/06/19 03:16:22;;;;;;;25.50;23.00;;;;;;;14.97;100.00;99132.44;2097979;28;20456;-72
2022/06/19 03:17:24;;;;;;;25.50;23.33;;;;;;;14.97;100.00;99132.44;2097892;28;20440;-70
2022/06/19 03:18:25;;;;;;;25.67;23.27;;;;;;;14.94;100.00;99130.38;2098177;28;20221;-70
2022/06/19 03:19:27;;;;;;;25.33;23.10;;;;;;;14.92;100.00;99130.72;2098854;28;20423;-70
2022/06/19 03:20:28;;;;;;;25.27;23.07;;;;;;;14.95;100.00;99135.47;2098842;28;20304;-70
2022/06/19 03:21:29;;;;;;;25.60;22.93;;;;;;;15.04;100.00;99142.69;2097195;28;20448;-71
2022/06/19 03:22:33;;;;;;;25.13;22.70;;;;;;;15.06;100.00;99141.25;2098192;28;20436;-70
2022/06/19 03:23:35;;;;;;;25.17;22.83;;;;;;;15.09;100.00;99151.34;2098834;28;20198;-70
2022/06/19 03:24:39;;;;;;;26.27;23.67;;;;;;;15.12;100.00;99145.34;2098612;28;20435;-71
2022/06/19 03:25:40;;;;;;;25.63;22.97;;;;;;;15.14;100.00;99147.72;2098625;28;20458;-71
2022/06/19 03:26:41;;;;;;;25.27;23.17;;;;;;;15.15;100.00;99143.91;2098619;28;20482;-70
2022/06/19 03:27:42;;;;;;;25.73;23.17;;;;;;;15.18;100.00;99144.03;2098712;28;20700;-71
2022/06/19 03:28:48;;;;;;;25.10;22.57;;;;;;;15.21;100.00;99145.31;2098625;28;20809;-71
2022/06/19 03:29:51;;;;;;;25.57;23.07;;;;;;;15.25;100.00;99149.69;2097975;28;20279;-71
2022/06/19 03:30:54;;;;;;;26.03;23.43;;;;;;;15.27;100.00;99147.47;2097858;28;20466;-71
2022/06/19 03:31:55;;;;;;;25.83;23.30;;;;;;;15.28;100.00;99140.97;2098240;28;20500;-71
2022/06/19 03:32:57;;;;;;;25.73;23.43;;;;;;;15.31;100.00;99144.16;2098585;28;20424;-71
2022/06/19 03:33:57;;;;;;;26.83;24.33;;;;;;;15.35;100.00;99137.00;2098738;28;20658;-71
2022/06/19 03:34:59;;;;;;;26.20;23.90;;;;;;;15.34;100.00;99138.09;2098604;28;20425;-71
2022/06/19 03:36:00;;;;;;;26.13;23.63;;;;;;;15.37;100.00;99142.81;2097337;28;20296;-70
2022/06/19 03:37:01;;;;;;;26.00;23.43;;;;;;;15.37;100.00;99137.44;2097943;28;20437;-70
2022/06/19 03:38:02;;;;;;;27.03;24.07;;;;;;;15.37;100.00;99140.13;2097916;28;20661;-71
2022/06/19 03:39:04;;;;;;;25.80;23.40;;;;;;;15.39;100.00;99135.25;2098656;28;20428;-71
2022/06/19 03:40:06;;;;;;;25.97;23.50;;;;;;;15.37;100.00;99134.75;2097855;28;20792;-71
2022/06/19 03:41:08;;;;;;;26.13;23.73;;;;;;;15.39;100.00;99141.41;2097991;28;20878;-70
2022/06/19 03:42:13;;;;;;;26.70;24.10;;;;;;;15.39;100.00;99137.94;2098527;28;20439;-71
2022/06/19 03:43:16;;;;;;;25.07;22.87;;;;;;;15.38;100.00;99137.16;2098609;28;20455;-72
2022/06/19 03:44:17;;;;;;;25.67;23.33;;;;;;;15.41;100.00;99131.09;2098541;28;20527;-71
2022/06/19 03:45:22;;;;;;;25.50;23.07;;;;;;;15.43;100.00;99138.84;2098502;28;20862;-70
2022/06/19 03:46:22;;;;;;;25.80;23.43;;;;;;;15.42;100.00;99131.91;2098549;28;20469;-71
2022/06/19 03:47:26;;;;;;;26.13;23.73;;;;;;;15.42;100.00;99138.06;2097389;28;20443;-71
2022/06/19 03:48:27;;;;;;;24.97;22.80;;;;;;;15.46;100.00;99133.63;2098272;28;20206;-71
2022/06/19 03:49:29;;;;;;;26.70;24.00;;;;;;;15.48;100.00;99131.38;2098163;28;20424;-71
2022/06/19 03:50:30;;;;;;;25.67;23.40;;;;;;;15.50;100.00;99133.75;2098522;28;20190;-70
2022/06/19 03:51:32;;;;;;;26.70;24.27;;;;;;;15.51;100.00;99135.31;2098199;28;20494;-71
2022/06/19 03:52:33;;;;;;;25.50;23.23;;;;;;;15.50;100.00;99128.38;2098068;28;20297;-71
2022/06/19 03:53:35;;;;;;;26.20;23.87;;;;;;;15.53;100.00;99133.88;2097929;28;20420;-71
2022/06/19 03:54:35;;;;;;;26.77;24.17;;;;;;;15.55;100.00;99136.25;2099399;28;20624;-71
2022/06/19 03:55:37;;;;;;;26.47;24.07;;;;;;;15.58;100.00;99130.22;2099476;28;20413;-71
2022/06/19 03:56:38;;;;;;;27.47;24.53;;;;;;;15.61;100.00;99134.16;2100090;28;20236;-71
2022/06/19 03:57:43;;;;;;;26.50;23.80;;;;;;;15.61;100.00;99131.47;2099212;28;20791;-71
2022/06/19 03:58:47;;;;;;;26.30;23.53;;;;;;;15.61;100.00;99128.78;2099481;28;20570;-72
2022/06/19 03:59:48;;;;;;;25.50;23.23;;;;;;;15.66;100.00;99134.78;2100053;28;20425;-71
2022/06/19 04:00:50;;;;;;;26.97;24.43;;;;;;;15.68;100.00;99132.53;2100197;28;20476;-71
2022/06/19 04:01:52;;;;;;;27.27;24.77;;;;;;;15.73;100.00;99129.66;2099283;28;21024;-71
2022/06/19 04:02:53;;;;;;;26.07;23.53;;;;;;;15.74;100.00;99133.94;2099429;28;20429;-72
2022/06/19 04:03:56;;;;;;;26.93;24.23;;;;;;;15.76;100.00;99134.38;2099290;28;20441;-71
2022/06/19 04:04:59;;;;;;;26.00;23.23;;;;;;;15.78;100.00;99134.03;2099266;28;20521;-71
2022/06/19 04:06:02;;;;;;;25.37;23.13;;;;;;;15.80;100.00;99129.13;2099629;28;20493;-70
2022/06/19 04:07:04;;;;;;;25.87;23.50;;;;;;;15.81;100.00;99131.50;2100126;28;20432;-71
2022/06/19 04:08:05;;;;;;;25.40;23.10;;;;;;;15.85;100.00;99126.25;2099994;28;20431;-71
2022/06/19 04:09:08;;;;;;;25.60;23.37;;;;;;;15.89;100.00;99131.75;2099967;28;20424;-71
2022/06/19 04:10:11;;;;;;;27.53;23.43;;;;;;;15.93;100.00;99132.66;2099547;28;20199;-71
2022/06/19 04:11:14;;;;;;;28.07;24.73;;;;;;;15.88;100.00;99125.56;2099200;28;20443;-71
2022/06/19 04:12:16;;;;;;;25.87;23.63;;;;;;;15.94;100.00;99131.56;2091117;28;21041;-71
2022/06/19 04:13:18;;;;;;;25.77;23.27;;;;;;;15.98;100.00;99135.94;2099498;28;20436;-71
2022/06/19 04:14:19;;;;;;;25.23;23.03;;;;;;;16.01;100.00;99121.06;2099215;28;20535;-71
2022/06/19 04:15:21;;;;;;;25.60;23.27;;;;;;;16.07;100.00;99125.09;2099413;28;20431;-71
2022/06/19 04:16:25;;;;;;;24.83;22.73;;;;;;;16.09;100.00;99126.34;2099911;28;20489;-71
2022/06/19 04:17:27;;;;;;;25.20;22.90;;;;;;;16.13;100.00;99123.78;2099996;28;20483;-71
2022/06/19 04:18:29;;;;;;;26.77;24.17;;;;;;;16.17;100.00;99130.09;2099812;28;20499;-71
2022/06/19 04:19:32;;;;;;;26.27;23.87;;;;;;;16.21;100.00;99120.22;2099905;28;20439;-71
2022/06/19 04:20:33;;;;;;;27.00;24.20;;;;;;;16.25;100.00;99131.13;2099573;28;20840;-71
2022/06/19 04:21:37;;;;;;;25.07;22.83;;;;;;;16.30;100.00;99126.31;2098936;28;20459;-71
2022/06/19 04:22:38;;;;;;;26.23;23.87;;;;;;;16.34;100.00;99123.75;2099821;28;20229;-71
2022/06/19 04:23:41;;;;;;;26.10;23.57;;;;;;;16.39;100.00;99132.38;2100070;28;20421;-71
2022/06/19 04:24:42;;;;;;;25.73;23.53;;;;;;;16.39;100.00;99121.63;2099502;28;20548;-70
2022/06/19 04:25:45;;;;;;;25.93;23.27;;;;;;;16.47;100.00;99121.88;2099254;28;20503;-70
2022/06/19 04:26:46;;;;;;;24.93;22.77;;;;;;;16.53;100.00;99125.94;2100050;28;20644;-71
2022/06/19 04:27:48;;;;;;;25.53;23.40;;;;;;;16.55;100.00;99121.78;2099877;28;20432;-71
2022/06/19 04:28:48;;;;;;;25.40;23.17;;;;;;;16.56;100.00;99122.56;2099152;28;20281;-71
2022/06/19 04:29:50;;;;;;;26.47;24.03;;;;;;;16.61;100.00;99127.75;2099338;28;20962;-71
2022/06/19 04:30:51;;;;;;;24.80;22.57;;;;;;;16.62;100.00;99127.41;2099208;28;20208;-72
2022/06/19 04:31:56;;;;;;;25.47;22.97;;;;;;;16.64;100.00;99119.75;2099121;28;20451;-71
2022/06/19 04:32:56;;;;;;;25.97;23.50;;;;;;;16.68;100.00;99125.28;2099201;28;20816;-71
2022/06/19 04:33:58;;;;;;;26.47;23.90;;;;;;;16.82;100.00;99112.28;2100008;28;20424;-71
2022/06/19 04:34:59;;;;;;;26.13;23.63;;;;;;;16.88;100.00;99120.97;2099084;28;20229;-70
2022/06/19 04:36:00;;;;;;;26.10;23.70;;;;;;;16.91;100.00;99121.06;2098498;28;20444;-71
2022/06/19 04:37:02;;;;;;;26.87;24.30;;;;;;;16.98;100.00;99114.34;2099145;28;20235;-71
2022/06/19 04:38:03;;;;;;;24.23;22.30;;;;;;;17.02;100.00;99109.81;2098938;28;20465;-71
2022/06/19 04:39:09;;;;;;;25.77;23.43;;;;;;;17.07;100.00;99110.41;2090800;28;20453;-71
2022/06/19 04:40:12;;;;;;;25.20;22.93;;;;;;;17.12;100.00;99120.97;2099203;28;20194;-71
2022/06/19 04:41:16;;;;;;;25.03;22.47;;;;;;;17.15;100.00;99114.09;2099750;28;20838;-71
2022/06/19 04:42:17;;;;;;;24.80;22.50;;;;;;;17.21;100.00;99107.38;2099916;28;20436;-72
2022/06/19 04:43:18;;;;;;;23.60;21.40;;;;;;;17.22;100.00;99112.41;2099260;28;20479;-71
2022/06/19 04:44:20;;;;;;;24.57;21.97;;;;;;;17.27;100.00;99110.59;2099137;28;20194;-71
2022/06/19 04:45:21;;;;;;;24.03;21.77;;;;;;;17.30;100.00;99110.72;2098968;28;20440;-71
2022/06/19 04:46:22;;;;;;;23.43;21.63;;;;;;;17.32;100.00;99102.28;2099321;28;20558;-71